sensor_id;sensor_type;location;lat;lon;timestamp;P1;durP1;ratioP1;P2;durP2;ratioP2
23728;SDS011;12045;60.214;24.724;2023-05-10T00:00:42;5.22;;;3.47;;
23728;SDS011;12045;60.214;24.724;2023-05-10T00:03:10;5.55;;;3.20;;
23728;SDS011;12045;60.214;24.724;2023-05-10T00:05:37;4.30;;;3.00;;
23728;SDS011;12045;60.214;24.724;2023-05-10T00:08:05;7.97;;;3.72;;
23728;SDS011;12045;60.214;24.724;2023-05-10T00:10:32;5.55;;;3.30;;
23728;SDS011;12045;60.214;24.724;2023-05-10T00:13:00;5.32;;;3.50;;
23728;SDS011;12045;60.214;24.724;2023-05-10T00:15:27;5.32;;;3.13;;
23728;SDS011;12045;60.214;24.724;2023-05-10T00:17:57;5.63;;;3.38;;
23728;SDS011;12045;60.214;24.724;2023-05-10T00:20:24;4.50;;;3.30;;
23728;SDS011;12045;60.214;24.724;2023-05-10T00:22:52;5.75;;;3.70;;
23728;SDS011;12045;60.214;24.724;2023-05-10T00:25:19;5.05;;;3.65;;
23728;SDS011;12045;60.214;24.724;2023-05-10T00:27:48;5.72;;;3.88;;
23728;SDS011;12045;60.214;24.724;2023-05-10T00:30:16;4.32;;;3.63;;
23728;SDS011;12045;60.214;24.724;2023-05-10T00:32:44;6.78;;;3.95;;
23728;SDS011;12045;60.214;24.724;2023-05-10T00:35:12;9.35;;;3.90;;
23728;SDS011;12045;60.214;24.724;2023-05-10T00:37:39;4.63;;;3.92;;
23728;SDS011;12045;60.214;24.724;2023-05-10T00:40:07;6.57;;;3.85;;
23728;SDS011;12045;60.214;24.724;2023-05-10T00:42:34;5.82;;;4.20;;
23728;SDS011;12045;60.214;24.724;2023-05-10T00:45:02;4.97;;;3.70;;
23728;SDS011;12045;60.214;24.724;2023-05-10T00:47:29;4.95;;;3.83;;
23728;SDS011;12045;60.214;24.724;2023-05-10T00:49:58;8.10;;;3.65;;
23728;SDS011;12045;60.214;24.724;2023-05-10T00:52:28;6.82;;;3.80;;
23728;SDS011;12045;60.214;24.724;2023-05-10T00:54:56;6.00;;;3.67;;
23728;SDS011;12045;60.214;24.724;2023-05-10T00:57:24;4.95;;;3.70;;
23728;SDS011;12045;60.214;24.724;2023-05-10T00:59:51;5.07;;;3.67;;
23728;SDS011;12045;60.214;24.724;2023-05-10T01:02:19;7.43;;;3.90;;
23728;SDS011;12045;60.214;24.724;2023-05-10T01:04:47;7.30;;;4.22;;
23728;SDS011;12045;60.214;24.724;2023-05-10T01:07:16;5.65;;;4.18;;
23728;SDS011;12045;60.214;24.724;2023-05-10T01:09:43;6.47;;;4.03;;
23728;SDS011;12045;60.214;24.724;2023-05-10T01:12:11;5.68;;;3.88;;
23728;SDS011;12045;60.214;24.724;2023-05-10T01:14:39;7.35;;;4.05;;
23728;SDS011;12045;60.214;24.724;2023-05-10T01:17:07;6.13;;;3.85;;
23728;SDS011;12045;60.214;24.724;2023-05-10T01:19:36;5.30;;;3.60;;
23728;SDS011;12045;60.214;24.724;2023-05-10T01:22:10;11.38;;;4.13;;
23728;SDS011;12045;60.214;24.724;2023-05-10T01:33:49;5.90;;;4.00;;
23728;SDS011;12045;60.214;24.724;2023-05-10T01:36:32;5.63;;;4.22;;
23728;SDS011;12045;60.214;24.724;2023-05-10T01:41:59;5.85;;;4.38;;
23728;SDS011;12045;60.214;24.724;2023-05-10T01:44:37;6.18;;;3.90;;
23728;SDS011;12045;60.214;24.724;2023-05-10T01:47:16;7.35;;;4.47;;
23728;SDS011;12045;60.214;24.724;2023-05-10T01:49:52;5.95;;;4.55;;
23728;SDS011;12045;60.214;24.724;2023-05-10T01:52:25;5.72;;;3.85;;
23728;SDS011;12045;60.214;24.724;2023-05-10T01:55:01;6.90;;;4.32;;
23728;SDS011;12045;60.214;24.724;2023-05-10T01:57:35;5.00;;;3.85;;
23728;SDS011;12045;60.214;24.724;2023-05-10T02:00:06;5.15;;;4.13;;
23728;SDS011;12045;60.214;24.724;2023-05-10T02:02:37;8.05;;;4.18;;
23728;SDS011;12045;60.214;24.724;2023-05-10T02:05:06;7.25;;;4.45;;
23728;SDS011;12045;60.214;24.724;2023-05-10T02:07:35;8.52;;;4.75;;
23728;SDS011;12045;60.214;24.724;2023-05-10T02:10:07;5.78;;;4.10;;
23728;SDS011;12045;60.214;24.724;2023-05-10T02:12:36;6.22;;;4.13;;
23728;SDS011;12045;60.214;24.724;2023-05-10T02:15:08;5.18;;;4.05;;
23728;SDS011;12045;60.214;24.724;2023-05-10T02:17:38;5.38;;;4.20;;
23728;SDS011;12045;60.214;24.724;2023-05-10T02:20:08;7.70;;;4.60;;
23728;SDS011;12045;60.214;24.724;2023-05-10T02:22:37;6.32;;;4.25;;
23728;SDS011;12045;60.214;24.724;2023-05-10T02:25:07;6.60;;;3.88;;
23728;SDS011;12045;60.214;24.724;2023-05-10T02:27:36;6.80;;;3.90;;
23728;SDS011;12045;60.214;24.724;2023-05-10T02:30:04;8.07;;;4.57;;
23728;SDS011;12045;60.214;24.724;2023-05-10T02:32:33;6.05;;;4.38;;
23728;SDS011;12045;60.214;24.724;2023-05-10T02:35:02;7.30;;;4.20;;
23728;SDS011;12045;60.214;24.724;2023-05-10T02:37:31;8.10;;;4.75;;
23728;SDS011;12045;60.214;24.724;2023-05-10T02:40:01;5.80;;;4.45;;
23728;SDS011;12045;60.214;24.724;2023-05-10T02:42:31;6.00;;;4.50;;
23728;SDS011;12045;60.214;24.724;2023-05-10T02:45:03;7.00;;;4.35;;
23728;SDS011;12045;60.214;24.724;2023-05-10T02:47:35;7.65;;;4.60;;
23728;SDS011;12045;60.214;24.724;2023-05-10T02:50:02;5.60;;;4.57;;
23728;SDS011;12045;60.214;24.724;2023-05-10T02:52:33;8.50;;;4.95;;
23728;SDS011;12045;60.214;24.724;2023-05-10T02:55:06;7.22;;;4.10;;
23728;SDS011;12045;60.214;24.724;2023-05-10T02:57:40;8.93;;;4.28;;
23728;SDS011;12045;60.214;24.724;2023-05-10T03:00:13;8.10;;;4.60;;
23728;SDS011;12045;60.214;24.724;2023-05-10T03:02:41;8.95;;;4.65;;
23728;SDS011;12045;60.214;24.724;2023-05-10T03:05:08;7.65;;;4.03;;
23728;SDS011;12045;60.214;24.724;2023-05-10T03:07:35;9.23;;;4.43;;
23728;SDS011;12045;60.214;24.724;2023-05-10T03:10:04;6.80;;;4.60;;
23728;SDS011;12045;60.214;24.724;2023-05-10T03:18:10;7.43;;;4.32;;
23728;SDS011;12045;60.214;24.724;2023-05-10T03:20:48;6.93;;;4.15;;
23728;SDS011;12045;60.214;24.724;2023-05-10T03:25:45;5.65;;;4.53;;
23728;SDS011;12045;60.214;24.724;2023-05-10T03:28:16;4.43;;;3.92;;
23728;SDS011;12045;60.214;24.724;2023-05-10T03:30:45;4.80;;;3.97;;
23728;SDS011;12045;60.214;24.724;2023-05-10T03:33:13;6.35;;;4.10;;
23728;SDS011;12045;60.214;24.724;2023-05-10T03:35:41;6.35;;;3.97;;
23728;SDS011;12045;60.214;24.724;2023-05-10T03:38:08;5.78;;;4.10;;
23728;SDS011;12045;60.214;24.724;2023-05-10T03:40:36;7.28;;;4.28;;
23728;SDS011;12045;60.214;24.724;2023-05-10T03:43:04;6.18;;;4.32;;
23728;SDS011;12045;60.214;24.724;2023-05-10T03:45:31;5.57;;;4.25;;
23728;SDS011;12045;60.214;24.724;2023-05-10T03:47:59;7.38;;;4.53;;
23728;SDS011;12045;60.214;24.724;2023-05-10T03:50:26;10.45;;;4.45;;
23728;SDS011;12045;60.214;24.724;2023-05-10T03:52:54;6.38;;;4.30;;
23728;SDS011;12045;60.214;24.724;2023-05-10T03:55:22;7.88;;;4.03;;
23728;SDS011;12045;60.214;24.724;2023-05-10T03:57:49;6.10;;;4.20;;
23728;SDS011;12045;60.214;24.724;2023-05-10T04:00:17;8.02;;;4.65;;
23728;SDS011;12045;60.214;24.724;2023-05-10T04:02:44;7.57;;;4.18;;
23728;SDS011;12045;60.214;24.724;2023-05-10T04:05:12;6.40;;;4.35;;
23728;SDS011;12045;60.214;24.724;2023-05-10T04:07:39;5.95;;;4.50;;
23728;SDS011;12045;60.214;24.724;2023-05-10T04:10:07;8.63;;;4.50;;
23728;SDS011;12045;60.214;24.724;2023-05-10T04:12:35;6.78;;;4.45;;
23728;SDS011;12045;60.214;24.724;2023-05-10T04:15:02;10.35;;;4.72;;
23728;SDS011;12045;60.214;24.724;2023-05-10T04:17:30;9.57;;;4.30;;
23728;SDS011;12045;60.214;24.724;2023-05-10T04:19:58;6.53;;;4.30;;
23728;SDS011;12045;60.214;24.724;2023-05-10T04:22:25;6.82;;;4.40;;
23728;SDS011;12045;60.214;24.724;2023-05-10T04:24:54;8.38;;;4.50;;
23728;SDS011;12045;60.214;24.724;2023-05-10T04:27:22;7.50;;;4.40;;
23728;SDS011;12045;60.214;24.724;2023-05-10T04:29:49;9.23;;;4.18;;
23728;SDS011;12045;60.214;24.724;2023-05-10T04:32:17;7.85;;;3.97;;
23728;SDS011;12045;60.214;24.724;2023-05-10T04:34:46;10.85;;;4.00;;
23728;SDS011;12045;60.214;24.724;2023-05-10T04:37:13;5.60;;;3.60;;
23728;SDS011;12045;60.214;24.724;2023-05-10T04:39:41;7.05;;;4.18;;
23728;SDS011;12045;60.214;24.724;2023-05-10T04:42:08;7.50;;;3.75;;
23728;SDS011;12045;60.214;24.724;2023-05-10T04:44:37;7.07;;;3.63;;
23728;SDS011;12045;60.214;24.724;2023-05-10T04:47:04;6.18;;;3.47;;
23728;SDS011;12045;60.214;24.724;2023-05-10T04:49:31;6.22;;;3.75;;
23728;SDS011;12045;60.214;24.724;2023-05-10T04:51:59;5.97;;;3.53;;
23728;SDS011;12045;60.214;24.724;2023-05-10T04:54:26;6.75;;;3.53;;
23728;SDS011;12045;60.214;24.724;2023-05-10T04:56:54;5.15;;;3.60;;
23728;SDS011;12045;60.214;24.724;2023-05-10T04:59:21;4.25;;;3.33;;
23728;SDS011;12045;60.214;24.724;2023-05-10T05:01:49;5.85;;;3.30;;
23728;SDS011;12045;60.214;24.724;2023-05-10T05:04:17;4.47;;;2.88;;
23728;SDS011;12045;60.214;24.724;2023-05-10T05:06:44;10.32;;;3.10;;
23728;SDS011;12045;60.214;24.724;2023-05-10T05:09:12;7.70;;;3.35;;
23728;SDS011;12045;60.214;24.724;2023-05-10T05:11:39;4.90;;;3.00;;
23728;SDS011;12045;60.214;24.724;2023-05-10T05:14:08;6.88;;;3.10;;
23728;SDS011;12045;60.214;24.724;2023-05-10T05:16:36;6.32;;;2.85;;
23728;SDS011;12045;60.214;24.724;2023-05-10T05:19:05;6.72;;;3.22;;
23728;SDS011;12045;60.214;24.724;2023-05-10T05:21:34;5.20;;;2.60;;
23728;SDS011;12045;60.214;24.724;2023-05-10T05:24:02;5.13;;;3.00;;
23728;SDS011;12045;60.214;24.724;2023-05-10T05:26:31;4.45;;;2.95;;
23728;SDS011;12045;60.214;24.724;2023-05-10T05:28:59;5.85;;;2.55;;
23728;SDS011;12045;60.214;24.724;2023-05-10T05:31:26;3.50;;;2.70;;
23728;SDS011;12045;60.214;24.724;2023-05-10T05:33:54;7.90;;;2.90;;
23728;SDS011;12045;60.214;24.724;2023-05-10T05:36:22;4.47;;;3.10;;
23728;SDS011;12045;60.214;24.724;2023-05-10T05:38:50;7.32;;;3.15;;
23728;SDS011;12045;60.214;24.724;2023-05-10T05:41:18;7.35;;;3.20;;
23728;SDS011;12045;60.214;24.724;2023-05-10T05:43:45;7.47;;;3.22;;
23728;SDS011;12045;60.214;24.724;2023-05-10T05:46:13;4.88;;;3.20;;
23728;SDS011;12045;60.214;24.724;2023-05-10T05:48:41;5.07;;;2.88;;
23728;SDS011;12045;60.214;24.724;2023-05-10T05:51:09;5.75;;;3.47;;
23728;SDS011;12045;60.214;24.724;2023-05-10T05:53:36;5.57;;;3.20;;
23728;SDS011;12045;60.214;24.724;2023-05-10T05:56:05;6.80;;;3.30;;
23728;SDS011;12045;60.214;24.724;2023-05-10T05:58:33;6.03;;;3.17;;
23728;SDS011;12045;60.214;24.724;2023-05-10T06:01:02;7.82;;;3.50;;
23728;SDS011;12045;60.214;24.724;2023-05-10T06:03:30;6.28;;;3.30;;
23728;SDS011;12045;60.214;24.724;2023-05-10T06:05:59;5.55;;;3.58;;
23728;SDS011;12045;60.214;24.724;2023-05-10T06:08:27;5.35;;;3.72;;
23728;SDS011;12045;60.214;24.724;2023-05-10T06:10:54;9.57;;;3.67;;
23728;SDS011;12045;60.214;24.724;2023-05-10T06:13:22;6.35;;;4.00;;
23728;SDS011;12045;60.214;24.724;2023-05-10T06:15:51;8.63;;;3.85;;
23728;SDS011;12045;60.214;24.724;2023-05-10T06:18:19;8.00;;;3.90;;
23728;SDS011;12045;60.214;24.724;2023-05-10T06:20:46;8.02;;;3.78;;
23728;SDS011;12045;60.214;24.724;2023-05-10T06:23:15;8.55;;;3.95;;
23728;SDS011;12045;60.214;24.724;2023-05-10T06:25:42;13.48;;;4.32;;
23728;SDS011;12045;60.214;24.724;2023-05-10T06:28:10;7.22;;;3.92;;
23728;SDS011;12045;60.214;24.724;2023-05-10T06:30:37;9.73;;;3.95;;
23728;SDS011;12045;60.214;24.724;2023-05-10T06:33:05;6.60;;;3.88;;
23728;SDS011;12045;60.214;24.724;2023-05-10T06:35:34;8.27;;;4.20;;
23728;SDS011;12045;60.214;24.724;2023-05-10T06:38:04;7.68;;;4.50;;
23728;SDS011;12045;60.214;24.724;2023-05-10T06:40:32;10.15;;;4.45;;
23728;SDS011;12045;60.214;24.724;2023-05-10T06:43:00;6.82;;;4.00;;
23728;SDS011;12045;60.214;24.724;2023-05-10T06:45:27;5.32;;;3.80;;
23728;SDS011;12045;60.214;24.724;2023-05-10T06:51:18;7.22;;;4.40;;
23728;SDS011;12045;60.214;24.724;2023-05-10T06:53:47;11.43;;;4.85;;
23728;SDS011;12045;60.214;24.724;2023-05-10T06:56:25;8.52;;;4.40;;
23728;SDS011;12045;60.214;24.724;2023-05-10T06:58:53;7.18;;;4.07;;
23728;SDS011;12045;60.214;24.724;2023-05-10T07:01:24;8.88;;;4.10;;
23728;SDS011;12045;60.214;24.724;2023-05-10T07:03:52;6.88;;;3.72;;
23728;SDS011;12045;60.214;24.724;2023-05-10T07:06:19;7.88;;;4.00;;
23728;SDS011;12045;60.214;24.724;2023-05-10T07:08:59;7.20;;;4.00;;
23728;SDS011;12045;60.214;24.724;2023-05-10T07:11:27;6.97;;;4.07;;
23728;SDS011;12045;60.214;24.724;2023-05-10T07:13:55;8.82;;;4.20;;
23728;SDS011;12045;60.214;24.724;2023-05-10T07:16:24;7.18;;;3.80;;
23728;SDS011;12045;60.214;24.724;2023-05-10T07:18:51;8.02;;;4.30;;
23728;SDS011;12045;60.214;24.724;2023-05-10T07:21:20;8.63;;;3.85;;
23728;SDS011;12045;60.214;24.724;2023-05-10T07:23:47;6.88;;;4.00;;
23728;SDS011;12045;60.214;24.724;2023-05-10T07:26:22;6.70;;;4.07;;
23728;SDS011;12045;60.214;24.724;2023-05-10T07:28:51;8.18;;;3.67;;
23728;SDS011;12045;60.214;24.724;2023-05-10T07:31:19;6.70;;;4.15;;
23728;SDS011;12045;60.214;24.724;2023-05-10T07:33:48;7.55;;;4.28;;
23728;SDS011;12045;60.214;24.724;2023-05-10T07:36:17;7.65;;;3.78;;
23728;SDS011;12045;60.214;24.724;2023-05-10T07:38:46;8.18;;;3.92;;
23728;SDS011;12045;60.214;24.724;2023-05-10T07:41:14;7.80;;;4.18;;
23728;SDS011;12045;60.214;24.724;2023-05-10T07:43:42;6.15;;;4.18;;
23728;SDS011;12045;60.214;24.724;2023-05-10T07:46:09;8.00;;;4.05;;
23728;SDS011;12045;60.214;24.724;2023-05-10T07:48:37;10.35;;;4.03;;
23728;SDS011;12045;60.214;24.724;2023-05-10T07:51:05;5.97;;;3.95;;
23728;SDS011;12045;60.214;24.724;2023-05-10T07:53:34;8.30;;;4.28;;
23728;SDS011;12045;60.214;24.724;2023-05-10T07:58:48;6.28;;;3.92;;
23728;SDS011;12045;60.214;24.724;2023-05-10T08:01:16;8.27;;;4.35;;
23728;SDS011;12045;60.214;24.724;2023-05-10T08:03:44;7.68;;;4.32;;
23728;SDS011;12045;60.214;24.724;2023-05-10T08:06:13;10.25;;;4.50;;
23728;SDS011;12045;60.214;24.724;2023-05-10T08:08:45;6.68;;;4.13;;
23728;SDS011;12045;60.214;24.724;2023-05-10T08:11:16;8.07;;;4.10;;
23728;SDS011;12045;60.214;24.724;2023-05-10T08:13:45;3.92;;;2.70;;
23728;SDS011;12045;60.214;24.724;2023-05-10T08:16:13;5.90;;;3.97;;
23728;SDS011;12045;60.214;24.724;2023-05-10T08:18:43;6.10;;;4.00;;
23728;SDS011;12045;60.214;24.724;2023-05-10T08:21:12;7.35;;;3.95;;
23728;SDS011;12045;60.214;24.724;2023-05-10T08:23:41;6.13;;;3.65;;
23728;SDS011;12045;60.214;24.724;2023-05-10T08:26:11;4.10;;;2.92;;
23728;SDS011;12045;60.214;24.724;2023-05-10T08:28:45;5.95;;;3.50;;
23728;SDS011;12045;60.214;24.724;2023-05-10T08:31:26;10.73;;;3.50;;
23728;SDS011;12045;60.214;24.724;2023-05-10T08:33:57;3.75;;;3.08;;
23728;SDS011;12045;60.214;24.724;2023-05-10T08:36:27;6.95;;;2.88;;
23728;SDS011;12045;60.214;24.724;2023-05-10T08:38:55;5.55;;;3.13;;
23728;SDS011;12045;60.214;24.724;2023-05-10T08:41:24;6.93;;;3.60;;
23728;SDS011;12045;60.214;24.724;2023-05-10T08:44:05;6.25;;;3.35;;
23728;SDS011;12045;60.214;24.724;2023-05-10T08:46:35;5.55;;;3.40;;
23728;SDS011;12045;60.214;24.724;2023-05-10T08:49:07;4.25;;;2.22;;
23728;SDS011;12045;60.214;24.724;2023-05-10T08:51:36;6.63;;;2.95;;
23728;SDS011;12045;60.214;24.724;2023-05-10T08:54:09;6.00;;;3.25;;
23728;SDS011;12045;60.214;24.724;2023-05-10T08:56:37;4.43;;;3.33;;
23728;SDS011;12045;60.214;24.724;2023-05-10T08:59:05;7.03;;;3.30;;
23728;SDS011;12045;60.214;24.724;2023-05-10T09:01:33;8.65;;;3.65;;
23728;SDS011;12045;60.214;24.724;2023-05-10T09:04:03;4.85;;;3.20;;
23728;SDS011;12045;60.214;24.724;2023-05-10T09:06:31;6.43;;;3.75;;
23728;SDS011;12045;60.214;24.724;2023-05-10T09:09:00;4.53;;;3.40;;
23728;SDS011;12045;60.214;24.724;2023-05-10T09:11:28;9.30;;;3.50;;
23728;SDS011;12045;60.214;24.724;2023-05-10T09:13:58;8.77;;;3.00;;
23728;SDS011;12045;60.214;24.724;2023-05-10T09:16:26;5.70;;;3.17;;
23728;SDS011;12045;60.214;24.724;2023-05-10T09:18:59;7.65;;;3.60;;
23728;SDS011;12045;60.214;24.724;2023-05-10T09:21:27;5.88;;;3.38;;
23728;SDS011;12045;60.214;24.724;2023-05-10T09:23:54;6.32;;;3.40;;
23728;SDS011;12045;60.214;24.724;2023-05-10T09:26:25;7.97;;;3.30;;
23728;SDS011;12045;60.214;24.724;2023-05-10T09:28:53;8.63;;;3.33;;
23728;SDS011;12045;60.214;24.724;2023-05-10T09:31:42;6.93;;;3.50;;
23728;SDS011;12045;60.214;24.724;2023-05-10T09:34:16;6.55;;;3.30;;
23728;SDS011;12045;60.214;24.724;2023-05-10T09:36:58;6.90;;;3.47;;
23728;SDS011;12045;60.214;24.724;2023-05-10T09:39:37;7.70;;;3.22;;
23728;SDS011;12045;60.214;24.724;2023-05-10T09:42:05;7.05;;;3.17;;
23728;SDS011;12045;60.214;24.724;2023-05-10T09:44:38;7.90;;;3.10;;
23728;SDS011;12045;60.214;24.724;2023-05-10T09:47:11;5.00;;;3.10;;
23728;SDS011;12045;60.214;24.724;2023-05-10T09:49:51;5.25;;;3.25;;
23728;SDS011;12045;60.214;24.724;2023-05-10T09:52:24;5.03;;;3.20;;
23728;SDS011;12045;60.214;24.724;2023-05-10T09:54:54;5.10;;;2.70;;
23728;SDS011;12045;60.214;24.724;2023-05-10T09:57:24;5.53;;;2.88;;
23728;SDS011;12045;60.214;24.724;2023-05-10T09:59:52;6.45;;;3.17;;
23728;SDS011;12045;60.214;24.724;2023-05-10T10:02:27;7.38;;;3.03;;
23728;SDS011;12045;60.214;24.724;2023-05-10T10:05:00;5.15;;;3.20;;
23728;SDS011;12045;60.214;24.724;2023-05-10T10:07:30;5.57;;;3.13;;
23728;SDS011;12045;60.214;24.724;2023-05-10T10:09:58;5.57;;;3.30;;
23728;SDS011;12045;60.214;24.724;2023-05-10T10:12:27;5.93;;;3.15;;
23728;SDS011;12045;60.214;24.724;2023-05-10T10:15:00;5.43;;;3.00;;
23728;SDS011;12045;60.214;24.724;2023-05-10T10:17:28;4.55;;;2.80;;
23728;SDS011;12045;60.214;24.724;2023-05-10T10:20:14;4.00;;;2.80;;
23728;SDS011;12045;60.214;24.724;2023-05-10T10:22:53;4.38;;;3.20;;
23728;SDS011;12045;60.214;24.724;2023-05-10T10:25:22;3.10;;;2.63;;
23728;SDS011;12045;60.214;24.724;2023-05-10T10:27:59;5.93;;;3.58;;
23728;SDS011;12045;60.214;24.724;2023-05-10T10:30:42;4.78;;;3.03;;
23728;SDS011;12045;60.214;24.724;2023-05-10T10:36:13;7.93;;;3.20;;
23728;SDS011;12045;60.214;24.724;2023-05-10T10:38:56;5.50;;;3.00;;
23728;SDS011;12045;60.214;24.724;2023-05-10T10:41:35;3.25;;;2.92;;
23728;SDS011;12045;60.214;24.724;2023-05-10T10:49:48;4.78;;;3.10;;
23728;SDS011;12045;60.214;24.724;2023-05-10T10:52:27;6.18;;;3.22;;
23728;SDS011;12045;60.214;24.724;2023-05-10T10:55:07;4.93;;;3.20;;
23728;SDS011;12045;60.214;24.724;2023-05-10T10:57:49;5.10;;;3.17;;
23728;SDS011;12045;60.214;24.724;2023-05-10T11:06:33;6.30;;;2.95;;
23728;SDS011;12045;60.214;24.724;2023-05-10T11:09:06;4.40;;;3.10;;
23728;SDS011;12045;60.214;24.724;2023-05-10T11:11:48;5.50;;;2.90;;
23728;SDS011;12045;60.214;24.724;2023-05-10T11:14:47;3.95;;;2.90;;
23728;SDS011;12045;60.214;24.724;2023-05-10T11:17:24;3.58;;;3.22;;
23728;SDS011;12045;60.214;24.724;2023-05-10T11:20:06;3.55;;;2.67;;
23728;SDS011;12045;60.214;24.724;2023-05-10T11:22:52;4.75;;;2.75;;
23728;SDS011;12045;60.214;24.724;2023-05-10T11:25:29;7.25;;;3.10;;
23728;SDS011;12045;60.214;24.724;2023-05-10T11:28:03;5.00;;;3.10;;
23728;SDS011;12045;60.214;24.724;2023-05-10T11:30:32;6.90;;;3.25;;
23728;SDS011;12045;60.214;24.724;2023-05-10T11:33:02;3.75;;;2.97;;
23728;SDS011;12045;60.214;24.724;2023-05-10T11:35:30;4.05;;;3.17;;
23728;SDS011;12045;60.214;24.724;2023-05-10T11:38:05;5.03;;;3.13;;
23728;SDS011;12045;60.214;24.724;2023-05-10T11:40:35;5.30;;;3.42;;
23728;SDS011;12045;60.214;24.724;2023-05-10T11:43:04;6.50;;;3.45;;
23728;SDS011;12045;60.214;24.724;2023-05-10T11:45:35;4.65;;;3.17;;
23728;SDS011;12045;60.214;24.724;2023-05-10T11:48:05;4.97;;;3.30;;
23728;SDS011;12045;60.214;24.724;2023-05-10T11:50:32;5.00;;;3.35;;
23728;SDS011;12045;60.214;24.724;2023-05-10T11:53:00;5.63;;;3.47;;
23728;SDS011;12045;60.214;24.724;2023-05-10T11:55:30;7.10;;;3.20;;
23728;SDS011;12045;60.214;24.724;2023-05-10T11:58:00;6.18;;;3.15;;
23728;SDS011;12045;60.214;24.724;2023-05-10T12:00:29;7.00;;;3.40;;
23728;SDS011;12045;60.214;24.724;2023-05-10T12:03:00;4.93;;;3.33;;
23728;SDS011;12045;60.214;24.724;2023-05-10T12:05:28;6.78;;;3.35;;
23728;SDS011;12045;60.214;24.724;2023-05-10T12:08:12;6.20;;;3.10;;
23728;SDS011;12045;60.214;24.724;2023-05-10T12:10:41;4.22;;;3.22;;
23728;SDS011;12045;60.214;24.724;2023-05-10T12:13:12;5.10;;;3.25;;
23728;SDS011;12045;60.214;24.724;2023-05-10T12:15:42;5.45;;;3.10;;
23728;SDS011;12045;60.214;24.724;2023-05-10T12:18:10;4.90;;;2.90;;
23728;SDS011;12045;60.214;24.724;2023-05-10T12:20:40;7.13;;;3.03;;
23728;SDS011;12045;60.214;24.724;2023-05-10T12:23:09;5.97;;;3.25;;
23728;SDS011;12045;60.214;24.724;2023-05-10T12:25:39;4.65;;;3.00;;
23728;SDS011;12045;60.214;24.724;2023-05-10T12:28:07;6.18;;;3.15;;
23728;SDS011;12045;60.214;24.724;2023-05-10T12:30:46;6.95;;;3.40;;
23728;SDS011;12045;60.214;24.724;2023-05-10T12:33:13;6.60;;;3.13;;
23728;SDS011;12045;60.214;24.724;2023-05-10T12:35:50;5.63;;;3.40;;
23728;SDS011;12045;60.214;24.724;2023-05-10T12:40:59;7.78;;;3.20;;
23728;SDS011;12045;60.214;24.724;2023-05-10T12:43:29;5.47;;;3.47;;
23728;SDS011;12045;60.214;24.724;2023-05-10T12:45:57;7.63;;;3.58;;
23728;SDS011;12045;60.214;24.724;2023-05-10T12:48:26;6.72;;;3.00;;
23728;SDS011;12045;60.214;24.724;2023-05-10T12:50:55;4.45;;;3.40;;
23728;SDS011;12045;60.214;24.724;2023-05-10T12:53:23;7.53;;;3.05;;
23728;SDS011;12045;60.214;24.724;2023-05-10T12:55:50;7.18;;;3.28;;
23728;SDS011;12045;60.214;24.724;2023-05-10T12:58:18;6.25;;;3.10;;
23728;SDS011;12045;60.214;24.724;2023-05-10T13:01:02;6.90;;;3.08;;
23728;SDS011;12045;60.214;24.724;2023-05-10T13:03:31;4.35;;;3.33;;
23728;SDS011;12045;60.214;24.724;2023-05-10T13:05:59;4.65;;;3.20;;
23728;SDS011;12045;60.214;24.724;2023-05-10T13:08:28;5.18;;;3.03;;
23728;SDS011;12045;60.214;24.724;2023-05-10T13:11:00;7.13;;;3.30;;
23728;SDS011;12045;60.214;24.724;2023-05-10T13:13:28;4.63;;;2.80;;
23728;SDS011;12045;60.214;24.724;2023-05-10T13:15:56;6.07;;;3.25;;
23728;SDS011;12045;60.214;24.724;2023-05-10T13:18:23;4.53;;;2.95;;
23728;SDS011;12045;60.214;24.724;2023-05-10T13:20:51;5.88;;;3.08;;
23728;SDS011;12045;60.214;24.724;2023-05-10T13:23:22;4.78;;;3.15;;
23728;SDS011;12045;60.214;24.724;2023-05-10T13:25:51;6.57;;;3.20;;
23728;SDS011;12045;60.214;24.724;2023-05-10T13:28:18;5.55;;;2.80;;
23728;SDS011;12045;60.214;24.724;2023-05-10T13:30:47;6.32;;;3.10;;
23728;SDS011;12045;60.214;24.724;2023-05-10T13:33:16;5.43;;;3.40;;
23728;SDS011;12045;60.214;24.724;2023-05-10T13:35:52;4.88;;;3.15;;
23728;SDS011;12045;60.214;24.724;2023-05-10T13:38:21;5.22;;;2.88;;
23728;SDS011;12045;60.214;24.724;2023-05-10T13:40:48;6.88;;;3.10;;
23728;SDS011;12045;60.214;24.724;2023-05-10T13:43:19;4.55;;;3.05;;
23728;SDS011;12045;60.214;24.724;2023-05-10T13:45:47;5.20;;;3.13;;
23728;SDS011;12045;60.214;24.724;2023-05-10T13:48:14;6.60;;;3.10;;
23728;SDS011;12045;60.214;24.724;2023-05-10T13:50:42;5.05;;;2.90;;
23728;SDS011;12045;60.214;24.724;2023-05-10T13:53:10;4.72;;;3.05;;
23728;SDS011;12045;60.214;24.724;2023-05-10T13:55:37;4.30;;;3.05;;
23728;SDS011;12045;60.214;24.724;2023-05-10T13:58:05;3.13;;;2.80;;
23728;SDS011;12045;60.214;24.724;2023-05-10T14:00:32;5.72;;;2.80;;
23728;SDS011;12045;60.214;24.724;2023-05-10T14:03:01;5.47;;;2.83;;
23728;SDS011;12045;60.214;24.724;2023-05-10T14:05:29;7.20;;;3.20;;
23728;SDS011;12045;60.214;24.724;2023-05-10T14:07:57;6.68;;;3.70;;
23728;SDS011;12045;60.214;24.724;2023-05-10T14:10:24;6.38;;;3.15;;
23728;SDS011;12045;60.214;24.724;2023-05-10T14:12:53;5.20;;;3.17;;
23728;SDS011;12045;60.214;24.724;2023-05-10T14:15:21;6.30;;;3.17;;
23728;SDS011;12045;60.214;24.724;2023-05-10T14:17:49;9.35;;;3.00;;
23728;SDS011;12045;60.214;24.724;2023-05-10T14:20:16;8.93;;;3.15;;
23728;SDS011;12045;60.214;24.724;2023-05-10T14:22:44;4.40;;;3.10;;
23728;SDS011;12045;60.214;24.724;2023-05-10T14:25:11;4.53;;;2.97;;
23728;SDS011;12045;60.214;24.724;2023-05-10T14:27:40;7.15;;;3.55;;
23728;SDS011;12045;60.214;24.724;2023-05-10T14:30:07;6.80;;;3.33;;
23728;SDS011;12045;60.214;24.724;2023-05-10T14:32:35;5.18;;;3.00;;
23728;SDS011;12045;60.214;24.724;2023-05-10T14:35:04;5.38;;;3.15;;
23728;SDS011;12045;60.214;24.724;2023-05-10T14:37:38;6.78;;;3.42;;
23728;SDS011;12045;60.214;24.724;2023-05-10T14:40:06;7.07;;;3.25;;
23728;SDS011;12045;60.214;24.724;2023-05-10T14:42:34;3.90;;;3.30;;
23728;SDS011;12045;60.214;24.724;2023-05-10T14:45:02;5.10;;;3.30;;
23728;SDS011;12045;60.214;24.724;2023-05-10T14:47:30;8.93;;;3.33;;
23728;SDS011;12045;60.214;24.724;2023-05-10T14:49:58;4.40;;;3.00;;
23728;SDS011;12045;60.214;24.724;2023-05-10T14:52:25;4.80;;;2.85;;
23728;SDS011;12045;60.214;24.724;2023-05-10T14:54:53;6.03;;;3.15;;
23728;SDS011;12045;60.214;24.724;2023-05-10T14:57:21;8.30;;;3.75;;
23728;SDS011;12045;60.214;24.724;2023-05-10T14:59:48;7.25;;;3.33;;
23728;SDS011;12045;60.214;24.724;2023-05-10T15:02:16;6.72;;;3.00;;
23728;SDS011;12045;60.214;24.724;2023-05-10T15:04:44;5.60;;;2.90;;
23728;SDS011;12045;60.214;24.724;2023-05-10T15:07:12;6.88;;;3.10;;
23728;SDS011;12045;60.214;24.724;2023-05-10T15:09:42;4.45;;;2.97;;
23728;SDS011;12045;60.214;24.724;2023-05-10T15:12:09;6.80;;;3.72;;
23728;SDS011;12045;60.214;24.724;2023-05-10T15:14:38;6.03;;;3.30;;
23728;SDS011;12045;60.214;24.724;2023-05-10T15:17:06;5.45;;;3.40;;
23728;SDS011;12045;60.214;24.724;2023-05-10T15:19:34;4.38;;;3.40;;
23728;SDS011;12045;60.214;24.724;2023-05-10T15:22:03;4.55;;;3.45;;
23728;SDS011;12045;60.214;24.724;2023-05-10T15:24:31;7.65;;;3.08;;
23728;SDS011;12045;60.214;24.724;2023-05-10T15:26:59;7.22;;;3.50;;
23728;SDS011;12045;60.214;24.724;2023-05-10T15:29:27;11.15;;;3.40;;
23728;SDS011;12045;60.214;24.724;2023-05-10T15:31:56;7.32;;;3.25;;